sensor_id;sensor_type;location;lat;lon;timestamp;pressure;altitude;pressure_sealevel;temperature;humidity
70781;BME280;72716;48.814;2.126;2024-02-15T12:03:30;99752.44;;;18.85;100.00
70781;BME280;72716;48.814;2.126;2024-02-15T12:06:17;99746.97;;;18.88;100.00
70781;BME280;72716;48.814;2.126;2024-02-15T12:09:01;99745.28;;;19.26;100.00
70781;BME280;72716;48.814;2.126;2024-02-15T12:11:45;99749.50;;;19.67;100.00
70781;BME280;72716;48.814;2.126;2024-02-15T12:14:29;99743.81;;;18.20;100.00
70781;BME280;72716;48.814;2.126;2024-02-15T12:17:13;99746.13;;;18.68;100.00
70781;BME280;72716;48.814;2.126;2024-02-15T12:20:00;99739.13;;;17.63;100.00
70781;BME280;72716;48.814;2.126;2024-02-15T12:22:32;99731.34;;;18.02;100.00
70781;BME280;72716;48.814;2.126;2024-02-15T12:25:00;99723.94;;;17.89;100.00
70781;BME280;72716;48.814;2.126;2024-02-15T12:27:26;99719.06;;;18.81;100.00
70781;BME280;72716;48.814;2.126;2024-02-15T12:29:59;99704.94;;;18.61;100.00
70781;BME280;72716;48.814;2.126;2024-02-15T12:32:26;99706.72;;;19.19;100.00
70781;BME280;72716;48.814;2.126;2024-02-15T12:35:10;99692.66;;;18.78;100.00
70781;BME280;72716;48.814;2.126;2024-02-15T12:37:43;99690.16;;;18.75;100.00
70781;BME280;72716;48.814;2.126;2024-02-15T12:40:19;99680.34;;;18.58;100.00
70781;BME280;72716;48.814;2.126;2024-02-15T12:42:46;99674.25;;;18.17;100.00
70781;BME280;72716;48.814;2.126;2024-02-15T12:45:20;99670.19;;;18.29;100.00
70781;BME280;72716;48.814;2.126;2024-02-15T12:47:55;99666.88;;;18.62;100.00
70781;BME280;72716;48.814;2.126;2024-02-15T12:50:23;99668.06;;;18.16;100.00
70781;BME280;72716;48.814;2.126;2024-02-15T12:52:49;99672.47;;;18.56;100.00
70781;BME280;72716;48.814;2.126;2024-02-15T12:55:22;99661.00;;;18.75;100.00
70781;BME280;72716;48.814;2.126;2024-02-15T12:57:54;99656.81;;;18.51;100.00
70781;BME280;72716;48.814;2.126;2024-02-15T13:00:24;99652.63;;;18.84;100.00
70781;BME280;72716;48.814;2.126;2024-02-15T13:03:03;99649.00;;;19.41;100.00
70781;BME280;72716;48.814;2.126;2024-02-15T13:05:30;99650.88;;;19.39;98.14
70781;BME280;72716;48.814;2.126;2024-02-15T13:07:58;99654.31;;;19.59;93.72
70781;BME280;72716;48.814;2.126;2024-02-15T13:10:24;99655.56;;;19.52;92.89
70781;BME280;72716;48.814;2.126;2024-02-15T13:12:52;99654.16;;;19.08;96.50
70781;BME280;72716;48.814;2.126;2024-02-15T13:15:18;99651.75;;;19.03;100.00
70781;BME280;72716;48.814;2.126;2024-02-15T13:17:47;99643.06;;;18.99;100.00
70781;BME280;72716;48.814;2.126;2024-02-15T13:20:22;99637.22;;;18.92;97.51
70781;BME280;72716;48.814;2.126;2024-02-15T13:23:07;99629.50;;;19.05;100.00
70781;BME280;72716;48.814;2.126;2024-02-15T13:25:41;99621.84;;;19.36;100.00
70781;BME280;72716;48.814;2.126;2024-02-15T13:28:09;99619.50;;;19.48;96.10
70781;BME280;72716;48.814;2.126;2024-02-15T13:30:36;99610.38;;;19.18;98.71
70781;BME280;72716;48.814;2.126;2024-02-15T13:33:02;99605.19;;;19.68;99.67
70781;BME280;72716;48.814;2.126;2024-02-15T13:35:27;99597.41;;;19.99;92.10
70781;BME280;72716;48.814;2.126;2024-02-15T13:37:54;99597.88;;;19.56;94.19
70781;BME280;72716;48.814;2.126;2024-02-15T13:40:22;99596.44;;;19.84;100.00
70781;BME280;72716;48.814;2.126;2024-02-15T13:42:50;99594.84;;;20.47;90.51
70781;BME280;72716;48.814;2.126;2024-02-15T13:45:23;99590.56;;;19.25;91.81
70781;BME280;72716;48.814;2.126;2024-02-15T13:47:51;99582.91;;;19.88;92.17
70781;BME280;72716;48.814;2.126;2024-02-15T13:50:19;99585.72;;;20.19;93.17
70781;BME280;72716;48.814;2.126;2024-02-15T13:52:45;99585.69;;;20.03;86.85
70781;BME280;72716;48.814;2.126;2024-02-15T13:55:15;99586.16;;;20.11;89.31
70781;BME280;72716;48.814;2.126;2024-02-15T13:57:43;99572.78;;;20.45;85.84
70781;BME280;72716;48.814;2.126;2024-02-15T14:00:09;99569.13;;;20.48;86.10
70781;BME280;72716;48.814;2.126;2024-02-15T14:02:42;99573.56;;;20.64;84.82
70781;BME280;72716;48.814;2.126;2024-02-15T14:05:09;99571.69;;;20.49;91.20
70781;BME280;72716;48.814;2.126;2024-02-15T14:07:35;99564.06;;;20.27;93.71
70781;BME280;72716;48.814;2.126;2024-02-15T14:10:05;99568.44;;;21.07;93.11
70781;BME280;72716;48.814;2.126;2024-02-15T14:12:31;99555.50;;;21.01;93.48
70781;BME280;72716;48.814;2.126;2024-02-15T14:14:56;99552.75;;;20.86;92.47
70781;BME280;72716;48.814;2.126;2024-02-15T14:17:22;99540.78;;;21.41;82.68
70781;BME280;72716;48.814;2.126;2024-02-15T14:19:48;99541.13;;;21.34;77.97
70781;BME280;72716;48.814;2.126;2024-02-15T14:22:13;99540.72;;;21.26;86.14
70781;BME280;72716;48.814;2.126;2024-02-15T14:24:44;99541.00;;;20.91;80.06
70781;BME280;72716;48.814;2.126;2024-02-15T14:27:10;99535.69;;;21.21;79.21
70781;BME280;72716;48.814;2.126;2024-02-15T14:29:37;99539.44;;;20.07;84.45
70781;BME280;72716;48.814;2.126;2024-02-15T14:32:12;99550.00;;;20.25;85.98
70781;BME280;72716;48.814;2.126;2024-02-15T14:34:56;99538.25;;;20.61;88.21
70781;BME280;72716;48.814;2.126;2024-02-15T14:37:22;99533.63;;;20.49;81.41
70781;BME280;72716;48.814;2.126;2024-02-15T14:39:47;99542.00;;;21.35;91.31
70781;BME280;72716;48.814;2.126;2024-02-15T14:42:13;99526.84;;;21.06;78.70
70781;BME280;72716;48.814;2.126;2024-02-15T14:44:39;99510.94;;;20.74;77.60
70781;BME280;72716;48.814;2.126;2024-02-15T14:47:05;99521.16;;;20.66;79.70
70781;BME280;72716;48.814;2.126;2024-02-15T14:49:30;99523.41;;;21.04;80.51
70781;BME280;72716;48.814;2.126;2024-02-15T14:51:56;99526.44;;;20.98;76.78
70781;BME280;72716;48.814;2.126;2024-02-15T14:54:21;99521.28;;;20.48;82.91
70781;BME280;72716;48.814;2.126;2024-02-15T14:56:46;99533.91;;;20.75;86.02
70781;BME280;72716;48.814;2.126;2024-02-15T14:59:12;99541.88;;;20.12;84.35
70781;BME280;72716;48.814;2.126;2024-02-15T15:01:37;99535.84;;;20.24;80.30
70781;BME280;72716;48.814;2.126;2024-02-15T15:04:03;99527.47;;;20.32;80.89
70781;BME280;72716;48.814;2.126;2024-02-15T15:06:31;99534.66;;;20.30;85.62
70781;BME280;72716;48.814;2.126;2024-02-15T15:09:15;99528.47;;;20.46;78.57
70781;BME280;72716;48.814;2.126;2024-02-15T15:11:59;99528.97;;;19.36;85.36
70781;BME280;72716;48.814;2.126;2024-02-15T15:14:43;99517.22;;;19.24;87.43
70781;BME280;72716;48.814;2.126;2024-02-15T15:17:10;99522.91;;;18.81;83.56
70781;BME280;72716;48.814;2.126;2024-02-15T15:19:40;99515.47;;;19.05;89.42
70781;BME280;72716;48.814;2.126;2024-02-15T15:22:05;99515.47;;;18.70;88.86
70781;BME280;72716;48.814;2.126;2024-02-15T15:24:31;99514.66;;;19.05;94.07
70781;BME280;72716;48.814;2.126;2024-02-15T15:26:58;99513.31;;;19.14;91.68
70781;BME280;72716;48.814;2.126;2024-02-15T15:29:24;99517.91;;;18.92;84.37
70781;BME280;72716;48.814;2.126;2024-02-15T15:31:49;99524.38;;;18.69;93.45
70781;BME280;72716;48.814;2.126;2024-02-15T15:34:15;99517.72;;;18.78;92.33
70781;BME280;72716;48.814;2.126;2024-02-15T15:36:41;99514.78;;;18.66;89.02
70781;BME280;72716;48.814;2.126;2024-02-15T15:39:07;99526.13;;;18.51;97.69
70781;BME280;72716;48.814;2.126;2024-02-15T15:41:35;99516.25;;;18.35;93.02
70781;BME280;72716;48.814;2.126;2024-02-15T15:44:00;99523.84;;;18.04;97.65
70781;BME280;72716;48.814;2.126;2024-02-15T15:46:26;99522.84;;;18.07;98.81
70781;BME280;72716;48.814;2.126;2024-02-15T15:48:51;99523.56;;;17.91;100.00
70781;BME280;72716;48.814;2.126;2024-02-15T15:51:16;99524.31;;;17.93;100.00
70781;BME280;72716;48.814;2.126;2024-02-15T15:53:42;99518.97;;;17.95;100.00
70781;BME280;72716;48.814;2.126;2024-02-15T15:56:10;99527.09;;;17.71;100.00
70781;BME280;72716;48.814;2.126;2024-02-15T15:58:35;99522.47;;;17.57;100.00
70781;BME280;72716;48.814;2.126;2024-02-15T16:01:00;99528.00;;;17.51;100.00
70781;BME280;72716;48.814;2.126;2024-02-15T16:03:26;99519.03;;;17.34;100.00
70781;BME280;72716;48.814;2.126;2024-02-15T16:05:53;99516.25;;;17.16;100.00
70781;BME280;72716;48.814;2.126;2024-02-15T16:08:18;99525.47;;;17.06;100.00
70781;BME280;72716;48.814;2.126;2024-02-15T16:10:43;99517.69;;;17.03;100.00
70781;BME280;72716;48.814;2.126;2024-02-15T16:13:11;99506.31;;;17.01;100.00
70781;BME280;72716;48.814;2.126;2024-02-15T16:15:37;99511.72;;;16.97;100.00
70781;BME280;72716;48.814;2.126;2024-02-15T16:18:03;99520.09;;;16.86;100.00
70781;BME280;72716;48.814;2.126;2024-02-15T16:20:28;99517.84;;;16.77;100.00
70781;BME280;72716;48.814;2.126;2024-02-15T16:22:54;99514.00;;;16.63;100.00
70781;BME280;72716;48.814;2.126;2024-02-15T16:25:20;99503.44;;;16.63;100.00
70781;BME280;72716;48.814;2.126;2024-02-15T16:27:45;99495.03;;;16.54;100.00
70781;BME280;72716;48.814;2.126;2024-02-15T16:30:12;99490.78;;;16.49;100.00
70781;BME280;72716;48.814;2.126;2024-02-15T16:32:41;99495.47;;;16.43;100.00
70781;BME280;72716;48.814;2.126;2024-02-15T16:35:08;99504.06;;;16.25;100.00
70781;BME280;72716;48.814;2.126;2024-02-15T16:37:41;99499.88;;;16.20;100.00
70781;BME280;72716;48.814;2.126;2024-02-15T16:40:09;99502.69;;;16.15;100.00
70781;BME280;72716;48.814;2.126;2024-02-15T16:42:35;99508.09;;;16.12;100.00
70781;BME280;72716;48.814;2.126;2024-02-15T16:45:03;99511.22;;;15.98;100.00
70781;BME280;72716;48.814;2.126;2024-02-15T16:47:28;99512.31;;;15.92;100.00
70781;BME280;72716;48.814;2.126;2024-02-15T16:49:53;99503.91;;;15.82;100.00
70781;BME280;72716;48.814;2.126;2024-02-15T16:52:19;99507.28;;;15.86;100.00
70781;BME280;72716;48.814;2.126;2024-02-15T16:54:44;99514.50;;;15.81;100.00
70781;BME280;72716;48.814;2.126;2024-02-15T16:57:10;99521.38;;;15.85;100.00
70781;BME280;72716;48.814;2.126;2024-02-15T16:59:35;99530.84;;;15.66;100.00
70781;BME280;72716;48.814;2.126;2024-02-15T17:02:01;99519.59;;;15.61;100.00
70781;BME280;72716;48.814;2.126;2024-02-15T17:04:27;99523.81;;;15.67;100.00
70781;BME280;72716;48.814;2.126;2024-02-15T17:06:52;99521.34;;;15.62;100.00
70781;BME280;72716;48.814;2.126;2024-02-15T17:09:19;99526.63;;;15.62;100.00
70781;BME280;72716;48.814;2.126;2024-02-15T17:11:44;99523.38;;;15.54;100.00
70781;BME280;72716;48.814;2.126;2024-02-15T17:14:12;99515.41;;;15.56;100.00
70781;BME280;72716;48.814;2.126;2024-02-15T17:16:40;99524.13;;;15.58;100.00
70781;BME280;72716;48.814;2.126;2024-02-15T17:19:07;99519.06;;;15.51;100.00
70781;BME280;72716;48.814;2.126;2024-02-15T17:21:33;99510.47;;;15.46;100.00
70781;BME280;72716;48.814;2.126;2024-02-15T17:24:00;99515.88;;;15.43;100.00
70781;BME280;72716;48.814;2.126;2024-02-15T17:26:25;99527.31;;;15.42;100.00
70781;BME280;72716;48.814;2.126;2024-02-15T17:28:51;99516.88;;;15.39;100.00
70781;BME280;72716;48.814;2.126;2024-02-15T17:31:18;99520.50;;;15.36;100.00
70781;BME280;72716;48.814;2.126;2024-02-15T17:33:44;99519.56;;;15.37;100.00
70781;BME280;72716;48.814;2.126;2024-02-15T17:36:11;99517.81;;;15.38;100.00
70781;BME280;72716;48.814;2.126;2024-02-15T17:38:39;99520.56;;;15.35;100.00
70781;BME280;72716;48.814;2.126;2024-02-15T17:41:04;99521.34;;;15.37;100.00
70781;BME280;72716;48.814;2.126;2024-02-15T17:43:30;99519.63;;;15.36;100.00
70781;BME280;72716;48.814;2.126;2024-02-15T17:45:57;99530.16;;;15.36;100.00
70781;BME280;72716;48.814;2.126;2024-02-15T17:48:24;99528.41;;;15.36;100.00
70781;BME280;72716;48.814;2.126;2024-02-15T17:50:52;99523.28;;;15.32;100.00
70781;BME280;72716;48.814;2.126;2024-02-15T17:53:17;99535.69;;;15.28;100.00
70781;BME280;72716;48.814;2.126;2024-02-15T17:55:43;99532.09;;;15.31;100.00
70781;BME280;72716;48.814;2.126;2024-02-15T17:58:10;99533.94;;;15.28;100.00
70781;BME280;72716;48.814;2.126;2024-02-15T18:00:36;99532.41;;;15.21;100.00
70781;BME280;72716;48.814;2.126;2024-02-15T18:03:02;99534.03;;;15.25;100.00
70781;BME280;72716;48.814;2.126;2024-02-15T18:05:28;99528.94;;;15.21;100.00
70781;BME280;72716;48.814;2.126;2024-02-15T18:07:53;99522.69;;;15.23;100.00
70781;BME280;72716;48.814;2.126;2024-02-15T18:10:19;99513.19;;;15.19;100.00
70781;BME280;72716;48.814;2.126;2024-02-15T18:12:46;99521.09;;;15.19;100.00
70781;BME280;72716;48.814;2.126;2024-02-15T18:15:12;99525.31;;;15.23;100.00
70781;BME280;72716;48.814;2.126;2024-02-15T18:17:50;99516.66;;;15.20;100.00
70781;BME280;72716;48.814;2.126;2024-02-15T18:20:16;99515.66;;;15.24;100.00
70781;BME280;72716;48.814;2.126;2024-02-15T18:22:42;99522.75;;;15.22;100.00
70781;BME280;72716;48.814;2.126;2024-02-15T18:25:08;99520.06;;;15.23;100.00
70781;BME280;72716;48.814;2.126;2024-02-15T18:27:34;99514.03;;;15.20;100.00
70781;BME280;72716;48.814;2.126;2024-02-15T18:30:07;99509.63;;;15.20;100.00
70781;BME280;72716;48.814;2.126;2024-02-15T18:32:37;99511.56;;;15.15;100.00
70781;BME280;72716;48.814;2.126;2024-02-15T18:35:07;99510.59;;;15.17;100.00
70781;BME280;72716;48.814;2.126;2024-02-15T18:37:36;99512.44;;;15.15;100.00
70781;BME280;72716;48.814;2.126;2024-02-15T18:40:02;99504.66;;;15.11;100.00
70781;BME280;72716;48.814;2.126;2024-02-15T18:42:34;99503.06;;;15.07;100.00
70781;BME280;72716;48.814;2.126;2024-02-15T18:45:03;99491.66;;;15.06;100.00
70781;BME280;72716;48.814;2.126;2024-02-15T18:47:29;99497.78;;;15.07;100.00
70781;BME280;72716;48.814;2.126;2024-02-15T18:49:56;99505.00;;;15.01;100.00
70781;BME280;72716;48.814;2.126;2024-02-15T18:52:22;99491.00;;;14.99;100.00
70781;BME280;72716;48.814;2.126;2024-02-15T18:54:47;99495.28;;;15.03;100.00
70781;BME280;72716;48.814;2.126;2024-02-15T18:57:13;99506.81;;;14.99;100.00
70781;BME280;72716;48.814;2.126;2024-02-15T18:59:38;99494.56;;;14.98;100.00
70781;BME280;72716;48.814;2.126;2024-02-15T19:02:04;99498.31;;;14.91;100.00
70781;BME280;72716;48.814;2.126;2024-02-15T19:04:33;99494.75;;;14.92;100.00
70781;BME280;72716;48.814;2.126;2024-02-15T19:06:58;99498.25;;;14.92;100.00
70781;BME280;72716;48.814;2.126;2024-02-15T19:09:24;99499.25;;;14.90;100.00
70781;BME280;72716;48.814;2.126;2024-02-15T19:11:49;99501.06;;;14.88;100.00
70781;BME280;72716;48.814;2.126;2024-02-15T19:14:15;99496.69;;;14.87;100.00
70781;BME280;72716;48.814;2.126;2024-02-15T19:16:44;99501.88;;;14.90;100.00
70781;BME280;72716;48.814;2.126;2024-02-15T19:19:09;99500.25;;;14.86;100.00
70781;BME280;72716;48.814;2.126;2024-02-15T19:21:37;99500.25;;;14.86;100.00
70781;BME280;72716;48.814;2.126;2024-02-15T19:24:07;99509.91;;;14.85;100.00
70781;BME280;72716;48.814;2.126;2024-02-15T19:26:33;99497.72;;;14.83;100.00
70781;BME280;72716;48.814;2.126;2024-02-15T19:29:04;99513.53;;;14.83;100.00
70781;BME280;72716;48.814;2.126;2024-02-15T19:31:30;99513.59;;;14.79;100.00
70781;BME280;72716;48.814;2.126;2024-02-15T19:33:55;99513.72;;;14.75;100.00
70781;BME280;72716;48.814;2.126;2024-02-15T19:36:21;99510.25;;;14.74;100.00
70781;BME280;72716;48.814;2.126;2024-02-15T19:38:50;99511.16;;;14.73;100.00
70781;BME280;72716;48.814;2.126;2024-02-15T19:41:16;99499.13;;;14.66;100.00
70781;BME280;72716;48.814;2.126;2024-02-15T19:43:42;99503.50;;;14.65;100.00
70781;BME280;72716;48.814;2.126;2024-02-15T19:46:07;99501.75;;;14.66;100.00
70781;BME280;72716;48.814;2.126;2024-02-15T19:48:33;99501.69;;;14.67;100.00
70781;BME280;72716;48.814;2.126;2024-02-15T19:50:59;99503.56;;;14.64;100.00
70781;BME280;72716;48.814;2.126;2024-02-15T19:53:25;99501.94;;;14.60;100.00
70781;BME280;72716;48.814;2.126;2024-02-15T19:55:50;99499.28;;;14.60;100.00
70781;BME280;72716;48.814;2.126;2024-02-15T19:58:16;99500.22;;;14.59;100.00
70781;BME280;72716;48.814;2.126;2024-02-15T20:00:41;99488.00;;;14.56;100.00
70781;BME280;72716;48.814;2.126;2024-02-15T20:03:06;99491.50;;;14.56;100.00
70781;BME280;72716;48.814;2.126;2024-02-15T20:05:33;99494.28;;;14.52;100.00
70781;BME280;72716;48.814;2.126;2024-02-15T20:07:58;99489.13;;;14.49;100.00
70781;BME280;72716;48.814;2.126;2024-02-15T20:10:24;99490.91;;;14.48;100.00
70781;BME280;72716;48.814;2.126;2024-02-15T20:12:49;99484.75;;;14.48;100.00
70781;BME280;72716;48.814;2.126;2024-02-15T20:15:15;99486.53;;;14.47;100.00
70781;BME280;72716;48.814;2.126;2024-02-15T20:17:40;99487.44;;;14.46;100.00
70781;BME280;72716;48.814;2.126;2024-02-15T20:20:06;99489.31;;;14.42;100.00
70781;BME280;72716;48.814;2.126;2024-02-15T20:22:33;99492.81;;;14.43;100.00
70781;BME280;72716;48.814;2.126;2024-02-15T20:24:58;99499.94;;;14.39;100.00
70781;BME280;72716;48.814;2.126;2024-02-15T20:27:26;99503.50;;;14.37;100.00
70781;BME280;72716;48.814;2.126;2024-02-15T20:29:56;99501.75;;;14.37;100.00
70781;BME280;72716;48.814;2.126;2024-02-15T20:32:22;99497.41;;;14.36;100.00
70781;BME280;72716;48.814;2.126;2024-02-15T20:34:47;99496.66;;;14.32;100.00
70781;BME280;72716;48.814;2.126;2024-02-15T20:37:13;99501.81;;;14.36;100.00
70781;BME280;72716;48.814;2.126;2024-02-15T20:39:38;99500.09;;;14.35;100.00
70781;BME280;72716;48.814;2.126;2024-02-15T20:42:04;99504.38;;;14.37;100.00
70781;BME280;72716;48.814;2.126;2024-02-15T20:44:29;99506.97;;;14.39;100.00
70781;BME280;72716;48.814;2.126;2024-02-15T20:46:55;99505.25;;;14.38;100.00
70781;BME280;72716;48.814;2.126;2024-02-15T20:49:20;99503.50;;;14.38;100.00
70781;BME280;72716;48.814;2.126;2024-02-15T20:51:45;99510.56;;;14.36;100.00
70781;BME280;72716;48.814;2.126;2024-02-15T20:54:11;99511.34;;;14.40;100.00
70781;BME280;72716;48.814;2.126;2024-02-15T20:56:38;99504.22;;;14.42;100.00
70781;BME280;72716;48.814;2.126;2024-02-15T20:59:04;99506.09;;;14.40;100.00
70781;BME280;72716;48.814;2.126;2024-02-15T21:01:30;99510.41;;;14.41;100.00
70781;BME280;72716;48.814;2.126;2024-02-15T21:03:56;99512.19;;;14.40;100.00
70781;BME280;72716;48.814;2.126;2024-02-15T21:06:22;99510.31;;;14.44;100.00
70781;BME280;72716;48.814;2.126;2024-02-15T21:08:51;99509.47;;;14.43;100.00
70781;BME280;72716;48.814;2.126;2024-02-15T21:11:24;99497.16;;;14.44;100.00
70781;BME280;72716;48.814;2.126;2024-02-15T21:13:53;99491.91;;;14.44;100.00
70781;BME280;72716;48.814;2.126;2024-02-15T21:16:21;99502.38;;;14.45;100.00
